Time;durP1;ratioP1;P1;durP2;ratioP2;P2;SDS_P1;SDS_P2;PMS_P1;PMS_P2;Temp;Humidity;BMP_temperature;BMP_pressure;BME280_temperature;BME280_humidity;BME280_pressure;Samples;Min_cycle;Max_cycle;Signal;HPM_P1;HPM_P2
2023/12/30 00:01:21;;;;;;;;;;;;;;;;;;5092529;28;19919;-61
2023/12/30 00:03:46;;;;;;;;;;;;;;;;;;5092843;28;19915;-61
2023/12/30 00:06:12;;;;;;;;;;;;;;;;;;5092601;28;19909;-61
2023/12/30 00:08:38;;;;;;;;;;;;;;;;;;5089812;28;20005;-62
2023/12/30 00:11:04;;;;;;;;;;;;;;;;;;5077385;28;19915;-66
2023/12/30 00:13:30;;;;;;;;;;;;;;;;;;5088739;28;20370;-68
2023/12/30 00:15:56;;;;;;;;;;;;;;;;;;5089191;28;19923;-68
2023/12/30 00:18:22;;;;;;;;;;;;;;;;;;5092049;28;19918;-68
2023/12/30 00:20:48;;;;;;;;;;;;;;;;;;5091963;28;20348;-59
2023/12/30 00:23:14;;;;;;;;;;;;;;;;;;5092403;28;19947;-62
2023/12/30 00:25:40;;;;;;;;;;;;;;;;;;5091911;28;19958;-62
2023/12/30 00:28:06;;;;;;;;;;;;;;;;;;5090432;28;19963;-62
2023/12/30 00:30:32;;;;;;;;;;;;;;;;;;5090829;28;19912;-62
2023/12/30 00:32:57;;;;;;;;;;;;;;;;;;5092135;28;20336;-63
2023/12/30 00:35:23;;;;;;;;;;;;;;;;;;5092128;28;19916;-62
2023/12/30 00:37:49;;;;;;;;;;;;;;;;;;5092206;28;19919;-62
2023/12/30 00:40:15;;;;;;;;;;;;;;;;;;5091760;28;20336;-62
2023/12/30 00:42:41;;;;;;;;;;;;;;;;;;5091809;28;19918;-62
2023/12/30 00:45:07;;;;;;;;;;;;;;;;;;5091923;28;19919;-62
2023/12/30 00:47:33;;;;;;;;;;;;;;;;;;5092288;28;20311;-62
2023/12/30 00:49:59;;;;;;;;;;;;;;;;;;5092094;28;19912;-62
2023/12/30 00:52:25;;;;;;;;;;;;;;;;;;5091779;28;20015;-63
2023/12/30 00:54:51;;;;;;;;;;;;;;;;;;5085363;28;19920;-62
2023/12/30 00:57:17;;;;;;;;;;;;;;;;;;5091928;28;19912;-62
2023/12/30 00:59:43;;;;;;;;;;;;;;;;;;5091884;28;20406;-62
2023/12/30 01:02:08;;;;;;;;;;;;;;;;;;5090303;28;19966;-62
2023/12/30 01:04:34;;;;;;;;;;;;;;;;;;5084166;28;19951;-62
2023/12/30 01:07:00;;;;;;;;;;;;;;;;;;5081828;28;20386;-62
2023/12/30 01:09:26;;;;;;;;;;;;;;;;;;5091405;28;19920;-62
2023/12/30 01:11:52;;;;;;;;;;;;;;;;;;5095836;28;20464;-62
2023/12/30 01:14:18;;;;;;;;;;;;;;;;;;5095805;28;20014;-62
2023/12/30 01:16:44;;;;;;;;;;;;;;;;;;5078542;28;20031;-62
2023/12/30 01:19:10;;;;;;;;;;;;;;;;;;5095755;28;20419;-62
2023/12/30 01:21:36;;;;;;;;;;;;;;;;;;5095223;28;19916;-61
2023/12/30 01:24:02;;;;;;;;;;;;;;;;;;5095430;28;19953;-61
2023/12/30 01:26:28;;;;;;;;;;;;;;;;;;5095867;28;20006;-61
2023/12/30 01:28:54;;;;;;;;;;;;;;;;;;5090520;28;20288;-61
2023/12/30 01:31:20;;;;;;;;;;;;;;;;;;5095276;28;19953;-68
2023/12/30 01:33:46;;;;;;;;;;;;;;;;;;5095176;28;19955;-67
2023/12/30 01:36:12;;;;;;;;;;;;;;;;;;5092995;28;19919;-69
2023/12/30 01:38:38;;;;;;;;;;;;;;;;;;5095572;28;19998;-68
2023/12/30 01:41:04;;;;;;;;;;;;;;;;;;5094911;28;19965;-68
2023/12/30 01:43:30;;;;;;;;;;;;;;;;;;5090524;28;19924;-68
2023/12/30 01:45:56;;;;;;;;;;;;;;;;;;5095348;28;20413;-68
2023/12/30 01:48:22;;;;;;;;;;;;;;;;;;5095013;28;20367;-68
2023/12/30 01:50:48;;;;;;;;;;;;;;;;;;5094699;28;19927;-66
2023/12/30 01:53:14;;;;;;;;;;;;;;;;;;5090681;28;20030;-68
2023/12/30 01:55:40;;;;;;;;;;;;;;;;;;5095241;28;19964;-68
2023/12/30 01:58:06;;;;;;;;;;;;;;;;;;5095142;28;19963;-67
2023/12/30 02:00:32;;;;;;;;;;;;;;;;;;5094294;28;19912;-68
2023/12/30 02:02:58;;;;;;;;;;;;;;;;;;5094511;28;19912;-68
2023/12/30 02:05:23;;;;;;;;;;;;;;;;;;5088624;28;19916;-67
2023/12/30 02:07:49;;;;;;;;;;;;;;;;;;5094921;28;20050;-68
2023/12/30 02:10:15;;;;;;;;;;;;;;;;;;5093150;28;20384;-68
2023/12/30 02:12:41;;;;;;;;;;;;;;;;;;5094114;28;19927;-67
2023/12/30 02:15:07;;;;;;;;;;;;;;;;;;5093160;28;20336;-67
2023/12/30 02:17:33;;;;;;;;;;;;;;;;;;5094131;28;19915;-68
2023/12/30 02:19:59;;;;;;;;;;;;;;;;;;5093761;28;19965;-68
2023/12/30 02:22:25;;;;;;;;;;;;;;;;;;5094840;28;19908;-68
2023/12/30 02:24:51;;;;;;;;;;;;;;;;;;5094444;28;20012;-69
2023/12/30 02:27:16;;;;;;;;;;;;;;;;;;5091411;28;19928;-67
2023/12/30 02:29:42;;;;;;;;;;;;;;;;;;5093493;28;19938;-67
2023/12/30 02:32:08;;;;;;;;;;;;;;;;;;5094582;28;20445;-63
2023/12/30 02:34:34;;;;;;;;;;;;;;;;;;5088816;28;20412;-62
2023/12/30 02:37:00;;;;;;;;;;;;;;;;;;5086126;28;19999;-62
2023/12/30 02:39:26;;;;;;;;;;;;;;;;;;5093450;28;20016;-63
2023/12/30 02:41:53;;;;;;;;;;;;;;;;;;5094593;28;19909;-61
2023/12/30 02:44:21;;;;;;;;;;;;;;;;;;5093357;28;20389;-61
2023/12/30 02:46:47;;;;;;;;;;;;;;;;;;5093889;28;20031;-61
2023/12/30 02:49:12;;;;;;;;;;;;;;;;;;5094264;28;19951;-61
2023/12/30 02:51:38;;;;;;;;;;;;;;;;;;5093144;28;20260;-61
2023/12/30 02:54:04;;;;;;;;;;;;;;;;;;5094039;28;20019;-61
2023/12/30 02:56:30;;;;;;;;;;;;;;;;;;5093822;28;19956;-61
2023/12/30 02:58:56;;;;;;;;;;;;;;;;;;5090771;28;20377;-61
2023/12/30 03:01:23;;;;;;;;;;;;;;;;;;5083495;28;20396;-62
2023/12/30 03:03:49;;;;;;;;;;;;;;;;;;5093933;28;19916;-61
2023/12/30 03:06:15;;;;;;;;;;;;;;;;;;5093526;28;20009;-61
2023/12/30 03:08:41;;;;;;;;;;;;;;;;;;5094100;28;20407;-61
2023/12/30 03:11:06;;;;;;;;;;;;;;;;;;5093478;28;19916;-61
2023/12/30 03:13:32;;;;;;;;;;;;;;;;;;5093260;28;19920;-61
2023/12/30 03:15:58;;;;;;;;;;;;;;;;;;5093027;28;19912;-62
2023/12/30 03:18:24;;;;;;;;;;;;;;;;;;5093693;28;19912;-61
2023/12/30 03:20:50;;;;;;;;;;;;;;;;;;5093277;28;19912;-61
2023/12/30 03:23:16;;;;;;;;;;;;;;;;;;5086068;28;20011;-61
2023/12/30 03:25:42;;;;;;;;;;;;;;;;;;5093246;28;20356;-62
2023/12/30 03:28:08;;;;;;;;;;;;;;;;;;5092702;28;19999;-61
2023/12/30 03:30:34;;;;;;;;;;;;;;;;;;5093023;28;19957;-61
2023/12/30 03:33:00;;;;;;;;;;;;;;;;;;5089159;28;19912;-61
2023/12/30 03:35:25;;;;;;;;;;;;;;;;;;5085711;28;19966;-61
2023/12/30 03:37:51;;;;;;;;;;;;;;;;;;5087987;28;20460;-61
2023/12/30 03:40:17;;;;;;;;;;;;;;;;;;5092230;28;19912;-61
2023/12/30 03:42:43;;;;;;;;;;;;;;;;;;5081807;28;19948;-60
2023/12/30 03:45:09;;;;;;;;;;;;;;;;;;5091176;28;19919;-59
2023/12/30 03:47:35;;;;;;;;;;;;;;;;;;5083296;28;19952;-59
2023/12/30 03:50:01;;;;;;;;;;;;;;;;;;5090797;28;20003;-59
2023/12/30 03:52:27;;;;;;;;;;;;;;;;;;5093169;28;19965;-63
2023/12/30 03:54:55;;;;;;;;;;;;;;;;;;5092894;28;20383;-63
2023/12/30 03:57:21;;;;;;;;;;;;;;;;;;5092884;28;20243;-63
2023/12/30 03:59:47;;;;;;;;;;;;;;;;;;5092396;28;19998;-63
2023/12/30 04:02:13;;;;;;;;;;;;;;;;;;5092632;28;19912;-63
2023/12/30 04:04:39;;;;;;;;;;;;;;;;;;5092443;28;20269;-62
2023/12/30 04:07:05;;;;;;;;;;;;;;;;;;5091653;28;19966;-63
2023/12/30 04:09:30;;;;;;;;;;;;;;;;;;5082155;28;20403;-62
2023/12/30 04:11:56;;;;;;;;;;;;;;;;;;5092257;28;19922;-63
2023/12/30 04:14:22;;;;;;;;;;;;;;;;;;5092790;28;20363;-62
2023/12/30 04:16:48;;;;;;;;;;;;;;;;;;5092138;28;20026;-62
2023/12/30 04:19:14;;;;;;;;;;;;;;;;;;5092459;28;19912;-62
2023/12/30 04:21:40;;;;;;;;;;;;;;;;;;5092611;28;19972;-62
2023/12/30 04:24:06;;;;;;;;;;;;;;;;;;5091593;28;19912;-62
2023/12/30 04:26:32;;;;;;;;;;;;;;;;;;5092294;28;20450;-62
2023/12/30 04:28:58;;;;;;;;;;;;;;;;;;5091911;28;19926;-63
2023/12/30 04:31:23;;;;;;;;;;;;;;;;;;5084641;28;20374;-62
2023/12/30 04:33:49;;;;;;;;;;;;;;;;;;5091996;28;19929;-62
2023/12/30 04:36:15;;;;;;;;;;;;;;;;;;5098126;28;20283;-62
2023/12/30 04:38:41;;;;;;;;;;;;;;;;;;5094079;28;19913;-62
2023/12/30 04:41:07;;;;;;;;;;;;;;;;;;5098752;28;20035;-62
2023/12/30 04:43:33;;;;;;;;;;;;;;;;;;5099041;28;19912;-62
2023/12/30 04:45:59;;;;;;;;;;;;;;;;;;5087004;28;20011;-62
2023/12/30 04:48:25;;;;;;;;;;;;;;;;;;5083954;28;19919;-62
2023/12/30 04:50:51;;;;;;;;;;;;;;;;;;5098336;28;19954;-65
2023/12/30 04:53:17;;;;;;;;;;;;;;;;;;5097304;28;19920;-66
2023/12/30 04:55:42;;;;;;;;;;;;;;;;;;5097692;28;20282;-67
2023/12/30 04:58:08;;;;;;;;;;;;;;;;;;5098112;28;20117;-65
2023/12/30 05:00:34;;;;;;;;;;;;;;;;;;5097918;28;19926;-65
2023/12/30 05:03:00;;;;;;;;;;;;;;;;;;5091483;28;20053;-60
2023/12/30 05:05:26;;;;;;;;;;;;;;;;;;5097804;28;20596;-61
2023/12/30 05:07:52;;;;;;;;;;;;;;;;;;5098735;28;19943;-60
2023/12/30 05:10:18;;;;;;;;;;;;;;;;;;5086083;28;19919;-61
2023/12/30 05:12:44;;;;;;;;;;;;;;;;;;5098456;28;19915;-61
2023/12/30 05:15:10;;;;;;;;;;;;;;;;;;5098031;28;19930;-61
2023/12/30 05:17:36;;;;;;;;;;;;;;;;;;5095258;28;20287;-61
2023/12/30 05:20:03;;;;;;;;;;;;;;;;;;5097601;28;19993;-60
2023/12/30 05:22:29;;;;;;;;;;;;;;;;;;5090171;28;19919;-60
2023/12/30 05:24:55;;;;;;;;;;;;;;;;;;5097188;28;20415;-61
2023/12/30 05:27:21;;;;;;;;;;;;;;;;;;5098487;28;20001;-61
2023/12/30 05:29:46;;;;;;;;;;;;;;;;;;5096930;28;20314;-61
2023/12/30 05:32:12;;;;;;;;;;;;;;;;;;5090654;28;20090;-60
2023/12/30 05:34:38;;;;;;;;;;;;;;;;;;5091242;28;19977;-60
2023/12/30 05:37:04;;;;;;;;;;;;;;;;;;5084602;28;19993;-61
2023/12/30 05:39:30;;;;;;;;;;;;;;;;;;5097891;28;20495;-61
2023/12/30 05:41:56;;;;;;;;;;;;;;;;;;5098396;28;20483;-60
2023/12/30 05:44:22;;;;;;;;;;;;;;;;;;5097769;28;20007;-60
2023/12/30 05:46:48;;;;;;;;;;;;;;;;;;5096001;28;20283;-61
2023/12/30 05:49:14;;;;;;;;;;;;;;;;;;5088572;28;19996;-60
2023/12/30 05:51:40;;;;;;;;;;;;;;;;;;5084773;28;19917;-60
2023/12/30 05:54:05;;;;;;;;;;;;;;;;;;5091603;28;20422;-60
2023/12/30 05:56:31;;;;;;;;;;;;;;;;;;5095383;28;19908;-60
2023/12/30 05:58:57;;;;;;;;;;;;;;;;;;5095002;28;20276;-60
2023/12/30 06:01:23;;;;;;;;;;;;;;;;;;5094948;28;20308;-65
2023/12/30 06:03:49;;;;;;;;;;;;;;;;;;5094703;28;19991;-66
2023/12/30 06:06:15;;;;;;;;;;;;;;;;;;5089933;28;19981;-64
2023/12/30 06:08:41;;;;;;;;;;;;;;;;;;5087148;28;19916;-64
2023/12/30 06:11:07;;;;;;;;;;;;;;;;;;5092636;28;19943;-65
2023/12/30 06:13:34;;;;;;;;;;;;;;;;;;5092516;28;19923;-65
2023/12/30 06:15:59;;;;;;;;;;;;;;;;;;5087526;28;19912;-65
2023/12/30 06:18:30;;;;;;;;;;;;;;;;;;5094764;28;20067;-65
2023/12/30 06:20:57;;;;;;;;;;;;;;;;;;5080488;28;20368;-64
2023/12/30 06:23:23;;;;;;;;;;;;;;;;;;5088741;28;19955;-64
2023/12/30 06:25:49;;;;;;;;;;;;;;;;;;5094422;28;19955;-65
2023/12/30 06:28:15;;;;;;;;;;;;;;;;;;5093599;28;20372;-64
2023/12/30 06:30:40;;;;;;;;;;;;;;;;;;5092778;28;19912;-65
2023/12/30 06:33:06;;;;;;;;;;;;;;;;;;5093916;28;19916;-65
2023/12/30 06:35:33;;;;;;;;;;;;;;;;;;5091070;28;20020;-65
2023/12/30 06:37:59;;;;;;;;;;;;;;;;;;5093908;28;19919;-65
2023/12/30 06:40:25;;;;;;;;;;;;;;;;;;5085081;28;19912;-65
2023/12/30 06:42:51;;;;;;;;;;;;;;;;;;5094118;28;19931;-64
2023/12/30 06:45:17;;;;;;;;;;;;;;;;;;5086809;28;19995;-64
2023/12/30 06:47:43;;;;;;;;;;;;;;;;;;5087555;28;19912;-65
2023/12/30 06:50:09;;;;;;;;;;;;;;;;;;5093523;28;20329;-65
2023/12/30 06:52:35;;;;;;;;;;;;;;;;;;5093736;28;19916;-64
2023/12/30 06:55:01;;;;;;;;;;;;;;;;;;5093127;28;20014;-65
2023/12/30 06:57:27;;;;;;;;;;;;;;;;;;5087975;28;19924;-64
2023/12/30 06:59:53;;;;;;;;;;;;;;;;;;5083303;28;19957;-65
2023/12/30 07:02:19;;;;;;;;;;;;;;;;;;5093569;28;19912;-66
2023/12/30 07:04:45;;;;;;;;;;;;;;;;;;5092731;28;19916;-65
2023/12/30 07:07:11;;;;;;;;;;;;;;;;;;5093784;28;19931;-65
2023/12/30 07:09:37;;;;;;;;;;;;;;;;;;5093276;28;19999;-65
2023/12/30 07:12:02;;;;;;;;;;;;;;;;;;5085642;28;19938;-62
2023/12/30 07:14:32;;;;;;;;;;;;;;;;;;5087231;28;19916;-62
2023/12/30 07:16:58;;;;;;;;;;;;;;;;;;5093209;28;19915;-62
2023/12/30 07:19:24;;;;;;;;;;;;;;;;;;5091745;28;19916;-62
2023/12/30 07:21:50;;;;;;;;;;;;;;;;;;5092404;28;20446;-62
2023/12/30 07:24:15;;;;;;;;;;;;;;;;;;5092209;28;20364;-62
2023/12/30 07:26:41;;;;;;;;;;;;;;;;;;5092720;28;19947;-62
2023/12/30 07:29:07;;;;;;;;;;;;;;;;;;5086605;28;20306;-63
2023/12/30 07:31:33;;;;;;;;;;;;;;;;;;5088870;28;19920;-62
2023/12/30 07:33:59;;;;;;;;;;;;;;;;;;5086907;28;20036;-62
2023/12/30 07:36:26;;;;;;;;;;;;;;;;;;5087049;28;19909;-62
2023/12/30 07:38:52;;;;;;;;;;;;;;;;;;5080260;28;19916;-62
2023/12/30 07:41:18;;;;;;;;;;;;;;;;;;5092230;28;19915;-62
2023/12/30 07:43:44;;;;;;;;;;;;;;;;;;5092047;28;19996;-62
2023/12/30 07:46:11;;;;;;;;;;;;;;;;;;5090062;28;19950;-62
2023/12/30 07:48:36;;;;;;;;;;;;;;;;;;5087792;28;19923;-62
2023/12/30 07:51:03;;;;;;;;;;;;;;;;;;5089752;28;19912;-62
2023/12/30 07:53:29;;;;;;;;;;;;;;;;;;5085508;28;19916;-62
2023/12/30 07:55:56;;;;;;;;;;;;;;;;;;5092137;28;20383;-62
2023/12/30 07:58:22;;;;;;;;;;;;;;;;;;5092111;28;19954;-62
2023/12/30 08:00:48;;;;;;;;;;;;;;;;;;5089744;28;19952;-62
2023/12/30 08:03:14;;;;;;;;;;;;;;;;;;5086938;28;20411;-62
2023/12/30 08:05:39;;;;;;;;;;;;;;;;;;5089271;28;19912;-62
2023/12/30 08:08:05;;;;;;;;;;;;;;;;;;5086184;28;20318;-62
2023/12/30 08:10:32;;;;;;;;;;;;;;;;;;5082785;28;19912;-62
2023/12/30 08:12:58;;;;;;;;;;;;;;;;;;5083120;28;19926;-63
2023/12/30 08:15:24;;;;;;;;;;;;;;;;;;5091593;28;20340;-61
2023/12/30 08:17:50;;;;;;;;;;;;;;;;;;5090987;28;20351;-62
2023/12/30 08:20:16;;;;;;;;;;;;;;;;;;5091599;28;19908;-60
2023/12/30 08:22:42;;;;;;;;;;;;;;;;;;5088953;28;19955;-63
2023/12/30 08:25:11;;;;;;;;;;;;;;;;;;5091070;28;19912;-62
2023/12/30 08:27:37;;;;;;;;;;;;;;;;;;5091478;28;19935;-62
2023/12/30 08:30:03;;;;;;;;;;;;;;;;;;5090329;28;20611;-62
2023/12/30 08:32:29;;;;;;;;;;;;;;;;;;5090859;28;19991;-62
2023/12/30 08:34:55;;;;;;;;;;;;;;;;;;5074455;28;19960;-62
2023/12/30 08:37:21;;;;;;;;;;;;;;;;;;5090264;28;20380;-62
2023/12/30 08:39:47;;;;;;;;;;;;;;;;;;5088627;28;19959;-62
2023/12/30 08:42:13;;;;;;;;;;;;;;;;;;5090921;28;19931;-65
2023/12/30 08:44:43;;;;;;;;;;;;;;;;;;5090506;28;20229;-64
2023/12/30 08:47:09;;;;;;;;;;;;;;;;;;5086657;28;20288;-64
2023/12/30 08:49:35;;;;;;;;;;;;;;;;;;5091220;28;19919;-64
2023/12/30 08:52:01;;;;;;;;;;;;;;;;;;5088056;28;19959;-65
2023/12/30 08:54:27;;;;;;;;;;;;;;;;;;5084414;28;19942;-64
2023/12/30 08:56:54;;;;;;;;;;;;;;;;;;5091036;28;19912;-65
2023/12/30 08:59:20;;;;;;;;;;;;;;;;;;5082360;28;19908;-65
2023/12/30 09:01:46;;;;;;;;;;;;;;;;;;5088732;28;19912;-64
2023/12/30 09:04:12;;;;;;;;;;;;;;;;;;5088904;28;19912;-65
2023/12/30 09:06:38;;;;;;;;;;;;;;;;;;5090157;28;20333;-65
2023/12/30 09:09:04;;;;;;;;;;;;;;;;;;5084597;28;19912;-64
2023/12/30 09:11:32;;;;;;;;;;;;;;;;;;5080415;28;19912;-64
2023/12/30 09:13:58;;;;;;;;;;;;;;;;;;5090834;28;20535;-65
2023/12/30 09:16:24;;;;;;;;;;;;;;;;;;5090714;28;19916;-65
2023/12/30 09:18:50;;;;;;;;;;;;;;;;;;5085658;28;20432;-65
2023/12/30 09:21:16;;;;;;;;;;;;;;;;;;5086395;28;19913;-64
2023/12/30 09:23:42;;;;;;;;;;;;;;;;;;5087529;28;20271;-65
2023/12/30 09:26:08;;;;;;;;;;;;;;;;;;5093393;28;19931;-64
2023/12/30 09:28:34;;;;;;;;;;;;;;;;;;5094438;28;19932;-65
2023/12/30 09:31:00;;;;;;;;;;;;;;;;;;5093809;28;19919;-65
2023/12/30 09:33:26;;;;;;;;;;;;;;;;;;5094788;28;19920;-64
2023/12/30 09:35:54;;;;;;;;;;;;;;;;;;5093000;28;19913;-65
2023/12/30 09:38:20;;;;;;;;;;;;;;;;;;5089405;28;20288;-64
2023/12/30 09:40:46;;;;;;;;;;;;;;;;;;5093618;28;19920;-63
2023/12/30 09:43:12;;;;;;;;;;;;;;;;;;5087698;28;19959;-61
2023/12/30 09:45:39;;;;;;;;;;;;;;;;;;5081890;28;19920;-60
2023/12/30 09:48:05;;;;;;;;;;;;;;;;;;5093312;28;20363;-60
2023/12/30 09:50:31;;;;;;;;;;;;;;;;;;5089183;28;19912;-60
2023/12/30 09:52:57;;;;;;;;;;;;;;;;;;5094270;28;20300;-60
2023/12/30 09:55:23;;;;;;;;;;;;;;;;;;5093527;28;20032;-61
2023/12/30 09:57:49;;;;;;;;;;;;;;;;;;5093682;28;19928;-60
2023/12/30 10:00:15;;;;;;;;;;;;;;;;;;5091887;28;19943;-60
2023/12/30 10:02:41;;;;;;;;;;;;;;;;;;5093107;28;20389;-61
2023/12/30 10:05:06;;;;;;;;;;;;;;;;;;5092792;28;19920;-60
2023/12/30 10:07:34;;;;;;;;;;;;;;;;;;5089538;28;20061;-61
2023/12/30 10:09:59;;;;;;;;;;;;;;;;;;5093019;28;19923;-60
2023/12/30 10:12:25;;;;;;;;;;;;;;;;;;5089941;28;20013;-60
2023/12/30 10:14:51;;;;;;;;;;;;;;;;;;5094183;28;20056;-60
2023/12/30 10:17:17;;;;;;;;;;;;;;;;;;5086785;28;19917;-60
2023/12/30 10:19:43;;;;;;;;;;;;;;;;;;5093247;28;19920;-61
2023/12/30 10:22:09;;;;;;;;;;;;;;;;;;5085799;28;19944;-60
2023/12/30 10:24:35;;;;;;;;;;;;;;;;;;5093532;28;20362;-60
2023/12/30 10:27:04;;;;;;;;;;;;;;;;;;5092840;28;19935;-60
2023/12/30 10:29:30;;;;;;;;;;;;;;;;;;5090655;28;19927;-60
2023/12/30 10:31:56;;;;;;;;;;;;;;;;;;5087780;28;19955;-60
2023/12/30 10:34:21;;;;;;;;;;;;;;;;;;5089157;28;19963;-60
2023/12/30 10:36:47;;;;;;;;;;;;;;;;;;5092428;28;19923;-60
2023/12/30 10:39:16;;;;;;;;;;;;;;;;;;5092769;28;19916;-61
2023/12/30 10:41:42;;;;;;;;;;;;;;;;;;5090283;28;19957;-61
2023/12/30 10:44:08;;;;;;;;;;;;;;;;;;5091878;28;20011;-60
2023/12/30 10:46:34;;;;;;;;;;;;;;;;;;5083434;28;19923;-61
2023/12/30 10:49:03;;;;;;;;;;;;;;;;;;5092082;28;19912;-60
2023/12/30 10:51:29;;;;;;;;;;;;;;;;;;5086253;28;19917;-60
2023/12/30 10:53:55;;;;;;;;;;;;;;;;;;5090161;28;20390;-60
2023/12/30 10:56:21;;;;;;;;;;;;;;;;;;5092098;28;19948;-61
2023/12/30 10:58:47;;;;;;;;;;;;;;;;;;5090953;28;20337;-60
2023/12/30 11:01:13;;;;;;;;;;;;;;;;;;5087506;28;19912;-61
2023/12/30 11:03:40;;;;;;;;;;;;;;;;;;5085696;28;20312;-62
2023/12/30 11:06:07;;;;;;;;;;;;;;;;;;5093208;28;19908;-61
2023/12/30 11:08:33;;;;;;;;;;;;;;;;;;5090630;28;19920;-60
2023/12/30 11:10:59;;;;;;;;;;;;;;;;;;5091929;28;19961;-61
2023/12/30 11:13:25;;;;;;;;;;;;;;;;;;5089910;28;19952;-60
2023/12/30 11:15:51;;;;;;;;;;;;;;;;;;5092463;28;19992;-61
2023/12/30 11:18:17;;;;;;;;;;;;;;;;;;5085846;28;19989;-61
2023/12/30 11:20:43;;;;;;;;;;;;;;;;;;5088619;28;19926;-61
2023/12/30 11:23:10;;;;;;;;;;;;;;;;;;5090174;28;20411;-61
2023/12/30 11:25:36;;;;;;;;;;;;;;;;;;5084576;28;19955;-61
2023/12/30 11:28:02;;;;;;;;;;;;;;;;;;5091783;28;20367;-60
2023/12/30 11:30:28;;;;;;;;;;;;;;;;;;5090462;28;19990;-60
2023/12/30 11:32:57;;;;;;;;;;;;;;;;;;5089950;28;20006;-61
2023/12/30 11:35:23;;;;;;;;;;;;;;;;;;5090884;28;19933;-60
2023/12/30 11:37:49;;;;;;;;;;;;;;;;;;5091986;28;19985;-61
2023/12/30 11:40:14;;;;;;;;;;;;;;;;;;5089064;28;19912;-59
2023/12/30 11:42:40;;;;;;;;;;;;;;;;;;5091217;28;19965;-60
2023/12/30 11:45:06;;;;;;;;;;;;;;;;;;5091818;28;19961;-62
2023/12/30 11:47:32;;;;;;;;;;;;;;;;;;5088690;28;20379;-59
2023/12/30 11:49:58;;;;;;;;;;;;;;;;;;5091448;28;19940;-59
2023/12/30 11:52:24;;;;;;;;;;;;;;;;;;5090655;28;19919;-60
2023/12/30 11:54:50;;;;;;;;;;;;;;;;;;5091901;28;20476;-59
2023/12/30 11:57:16;;;;;;;;;;;;;;;;;;5092206;28;19908;-59
2023/12/30 11:59:42;;;;;;;;;;;;;;;;;;5090932;28;20357;-60
2023/12/30 12:02:08;;;;;;;;;;;;;;;;;;5091783;28;19963;-61
2023/12/30 12:04:35;;;;;;;;;;;;;;;;;;5091845;28;19957;-61
2023/12/30 12:07:01;;;;;;;;;;;;;;;;;;5092139;28;19916;-61
2023/12/30 12:09:27;;;;;;;;;;;;;;;;;;5090928;28;20016;-61
2023/12/30 12:11:53;;;;;;;;;;;;;;;;;;5091599;28;20425;-61
2023/12/30 12:14:19;;;;;;;;;;;;;;;;;;5091368;28;19920;-61
2023/12/30 12:16:44;;;;;;;;;;;;;;;;;;5087347;28;19958;-61
2023/12/30 12:19:10;;;;;;;;;;;;;;;;;;5082019;28;19917;-61
2023/12/30 12:21:36;;;;;;;;;;;;;;;;;;5090917;28;20431;-61
2023/12/30 12:24:02;;;;;;;;;;;;;;;;;;5090767;28;19912;-61
2023/12/30 12:26:31;;;;;;;;;;;;;;;;;;5088105;28;19979;-61
2023/12/30 12:28:58;;;;;;;;;;;;;;;;;;5085265;28;20483;-61
2023/12/30 12:31:23;;;;;;;;;;;;;;;;;;5091135;28;19909;-60
2023/12/30 12:33:51;;;;;;;;;;;;;;;;;;5089707;28;19959;-61
2023/12/30 12:36:19;;;;;;;;;;;;;;;;;;5089190;28;19920;-61
2023/12/30 12:38:45;;;;;;;;;;;;;;;;;;5090391;28;20372;-61
2023/12/30 12:41:11;;;;;;;;;;;;;;;;;;5085767;28;19919;-61
2023/12/30 12:43:37;;;;;;;;;;;;;;;;;;5087066;28;19913;-61
2023/12/30 12:46:03;;;;;;;;;;;;;;;;;;5089452;28;20061;-61
2023/12/30 12:48:29;;;;;;;;;;;;;;;;;;5090472;28;20462;-60
2023/12/30 12:50:55;;;;;;;;;;;;;;;;;;5087503;28;19998;-61
2023/12/30 12:53:21;;;;;;;;;;;;;;;;;;5090927;28;19993;-60
2023/12/30 12:55:47;;;;;;;;;;;;;;;;;;5086673;28;20291;-60
2023/12/30 12:58:13;;;;;;;;;;;;;;;;;;5086216;28;19947;-61
2023/12/30 13:00:39;;;;;;;;;;;;;;;;;;5095118;28;19912;-61
2023/12/30 13:03:05;;;;;;;;;;;;;;;;;;5093999;28;19912;-60
2023/12/30 13:05:31;;;;;;;;;;;;;;;;;;5094401;28;19965;-61
2023/12/30 13:07:57;;;;;;;;;;;;;;;;;;5095212;28;19912;-61
2023/12/30 13:12:58;;;;;;;;;;;;;;;;;;5090051;28;19957;-62
2023/12/30 13:15:24;;;;;;;;;;;;;;;;;;5095216;28;19912;-60
2023/12/30 13:17:51;;;;;;;;;;;;;;;;;;5095024;28;19916;-59
2023/12/30 13:20:17;;;;;;;;;;;;;;;;;;5095029;28;19908;-59
2023/12/30 13:22:43;;;;;;;;;;;;;;;;;;5089875;28;19962;-63
2023/12/30 13:25:09;;;;;;;;;;;;;;;;;;5091941;28;19951;-63
2023/12/30 13:27:35;;;;;;;;;;;;;;;;;;5092719;28;20371;-60
2023/12/30 13:30:02;;;;;;;;;;;;;;;;;;5092499;28;19952;-62
2023/12/30 13:32:28;;;;;;;;;;;;;;;;;;5094868;28;19909;-63
2023/12/30 13:34:56;;;;;;;;;;;;;;;;;;5089352;28;20307;-63
2023/12/30 13:37:24;;;;;;;;;;;;;;;;;;5090699;28;19912;-63
2023/12/30 13:39:51;;;;;;;;;;;;;;;;;;5093575;28;19912;-63
2023/12/30 13:42:17;;;;;;;;;;;;;;;;;;5092808;28;19923;-63
2023/12/30 13:44:45;;;;;;;;;;;;;;;;;;5084283;28;20280;-63
2023/12/30 13:52:30;;;;;;;;;;;;;;;;;;5090210;28;19957;-62
2023/12/30 13:54:56;;;;;;;;;;;;;;;;;;5084471;28;20063;-63
2023/12/30 13:57:25;;;;;;;;;;;;;;;;;;5085261;28;20360;-62
2023/12/30 13:59:52;;;;;;;;;;;;;;;;;;5093759;28;19916;-62
2023/12/30 14:02:18;;;;;;;;;;;;;;;;;;5092417;28;20002;-62
2023/12/30 14:04:44;;;;;;;;;;;;;;;;;;5085730;28;19913;-62
2023/12/30 14:07:16;;;;;;;;;;;;;;;;;;5086888;28;19916;-63
2023/12/30 14:09:54;;;;;;;;;;;;;;;;;;5092639;28;19916;-62
2023/12/30 14:12:23;;;;;;;;;;;;;;;;;;5093500;28;19912;-62
2023/12/30 14:14:54;;;;;;;;;;;;;;;;;;5093792;28;19923;-63
2023/12/30 14:17:20;;;;;;;;;;;;;;;;;;5089552;28;19918;-62
2023/12/30 14:19:48;;;;;;;;;;;;;;;;;;5087548;28;19923;-62
2023/12/30 14:22:14;;;;;;;;;;;;;;;;;;5093828;28;20007;-61
2023/12/30 14:24:40;;;;;;;;;;;;;;;;;;5090346;28;19959;-60
2023/12/30 14:27:06;;;;;;;;;;;;;;;;;;5084267;28;19952;-60
2023/12/30 14:29:32;;;;;;;;;;;;;;;;;;5086787;28;19955;-60
2023/12/30 14:31:57;;;;;;;;;;;;;;;;;;5083784;28;19999;-63
2023/12/30 14:34:24;;;;;;;;;;;;;;;;;;5092856;28;20427;-64
2023/12/30 14:36:49;;;;;;;;;;;;;;;;;;5090251;28;19997;-62
2023/12/30 14:39:15;;;;;;;;;;;;;;;;;;5082438;28;19919;-62
2023/12/30 14:41:41;;;;;;;;;;;;;;;;;;5086517;28;19951;-65
2023/12/30 14:44:08;;;;;;;;;;;;;;;;;;5086411;28;19916;-67
2023/12/30 14:46:33;;;;;;;;;;;;;;;;;;5086493;28;20005;-62
2023/12/30 14:49:00;;;;;;;;;;;;;;;;;;5086571;28;19978;-62
2023/12/30 14:51:27;;;;;;;;;;;;;;;;;;5086447;28;19939;-65
2023/12/30 14:53:53;;;;;;;;;;;;;;;;;;5091592;28;20038;-64
2023/12/30 14:56:19;;;;;;;;;;;;;;;;;;5086560;28;20065;-63
2023/12/30 14:58:45;;;;;;;;;;;;;;;;;;5089369;28;19912;-62
2023/12/30 15:01:11;;;;;;;;;;;;;;;;;;5091772;28;20245;-61
2023/12/30 15:03:37;;;;;;;;;;;;;;;;;;5091187;28;19922;-63
2023/12/30 15:06:03;;;;;;;;;;;;;;;;;;5093274;28;19995;-62
2023/12/30 15:08:29;;;;;;;;;;;;;;;;;;5090994;28;20299;-63
2023/12/30 15:10:55;;;;;;;;;;;;;;;;;;5091903;28;19908;-62
2023/12/30 15:13:20;;;;;;;;;;;;;;;;;;5088105;28;19962;-62
2023/12/30 15:15:46;;;;;;;;;;;;;;;;;;5086249;28;20018;-62
2023/12/30 15:18:12;;;;;;;;;;;;;;;;;;5089173;28;19955;-63
2023/12/30 15:20:38;;;;;;;;;;;;;;;;;;5086442;28;19986;-63
2023/12/30 15:23:04;;;;;;;;;;;;;;;;;;5090933;28;20343;-63
2023/12/30 15:25:33;;;;;;;;;;;;;;;;;;5086546;28;19958;-63
2023/12/30 15:27:59;;;;;;;;;;;;;;;;;;5090720;28;20439;-62
2023/12/30 15:30:25;;;;;;;;;;;;;;;;;;5092635;28;20011;-63
2023/12/30 15:32:52;;;;;;;;;;;;;;;;;;5090588;28;19912;-62
2023/12/30 15:35:18;;;;;;;;;;;;;;;;;;5086583;28;19942;-58
2023/12/30 15:37:44;;;;;;;;;;;;;;;;;;5088197;28;20011;-59
2023/12/30 15:40:10;;;;;;;;;;;;;;;;;;5083881;28;19914;-59
2023/12/30 15:42:36;;;;;;;;;;;;;;;;;;5090690;28;20360;-63
2023/12/30 15:45:03;;;;;;;;;;;;;;;;;;5081265;28;19912;-63
2023/12/30 15:47:29;;;;;;;;;;;;;;;;;;5091103;28;19914;-63
2023/12/30 15:49:55;;;;;;;;;;;;;;;;;;5092871;28;19912;-63
2023/12/30 15:52:20;;;;;;;;;;;;;;;;;;5089778;28;19908;-63
2023/12/30 15:54:47;;;;;;;;;;;;;;;;;;5092914;28;19959;-63
2023/12/30 15:57:13;;;;;;;;;;;;;;;;;;5091018;28;19916;-63
2023/12/30 15:59:39;;;;;;;;;;;;;;;;;;5080220;28;19963;-62
2023/12/30 16:02:04;;;;;;;;;;;;;;;;;;5090782;28;20360;-63
2023/12/30 16:04:30;;;;;;;;;;;;;;;;;;5092861;28;19987;-64
2023/12/30 16:06:56;;;;;;;;;;;;;;;;;;5092648;28;19931;-63
2023/12/30 16:09:22;;;;;;;;;;;;;;;;;;5090928;28;19912;-65
2023/12/30 16:11:48;;;;;;;;;;;;;;;;;;5092287;28;19962;-65
2023/12/30 16:14:14;;;;;;;;;;;;;;;;;;5092086;28;19949;-63
2023/12/30 16:16:44;;;;;;;;;;;;;;;;;;5092568;28;19908;-63
2023/12/30 16:19:10;;;;;;;;;;;;;;;;;;5083354;28;20360;-63
2023/12/30 16:21:35;;;;;;;;;;;;;;;;;;5084448;28;19923;-63
2023/12/30 16:24:01;;;;;;;;;;;;;;;;;;5092393;28;19974;-63
2023/12/30 16:26:27;;;;;;;;;;;;;;;;;;5092269;28;19916;-62
2023/12/30 16:28:53;;;;;;;;;;;;;;;;;;5087961;28;19928;-62
2023/12/30 16:31:21;;;;;;;;;;;;;;;;;;5087833;28;19912;-64
2023/12/30 16:33:47;;;;;;;;;;;;;;;;;;5084691;28;19933;-63
2023/12/30 16:36:13;;;;;;;;;;;;;;;;;;5086269;28;19912;-61
2023/12/30 16:38:39;;;;;;;;;;;;;;;;;;5081721;28;19951;-62
2023/12/30 16:41:05;;;;;;;;;;;;;;;;;;5091999;28;19947;-58
2023/12/30 16:43:31;;;;;;;;;;;;;;;;;;5092470;28;19954;-59
2023/12/30 16:45:57;;;;;;;;;;;;;;;;;;5091632;28;20363;-59